createdAt,value
2019-03-13T00:00:56.516Z,98939.97
2019-03-13T00:02:21.031Z,98933.47
2019-03-13T00:03:24.350Z,98938.17
2019-03-13T00:04:27.459Z,98938.53
2019-03-13T00:05:30.620Z,98952.33
2019-03-13T00:06:33.791Z,98956.63
2019-03-13T00:07:37.179Z,98956.73
2019-03-13T00:08:40.312Z,98962.33
2019-03-13T00:09:43.434Z,98965.47
2019-03-13T00:10:46.441Z,98962.33
2019-03-13T00:11:50.094Z,98964.93
2019-03-13T00:12:54.048Z,98966.23
2019-03-13T00:13:57.700Z,98968.72
2019-03-13T00:15:01.168Z,98973.53
2019-03-13T00:16:04.896Z,98970.03
2019-03-13T00:17:08.456Z,98971.72
2019-03-13T00:18:12.324Z,98977.43
2019-03-13T00:19:15.983Z,98975.73
2019-03-13T00:20:19.372Z,98972.63
2019-03-13T00:21:22.814Z,98975.23
2019-03-13T00:22:25.801Z,98979.92
2019-03-13T00:23:29.478Z,98985.13
2019-03-13T00:24:35.759Z,98989.53
2019-03-13T00:25:39.307Z,98989.64
2019-03-13T00:26:45.460Z,98984.44
2019-03-13T00:27:49.046Z,98994.73
2019-03-13T00:28:52.550Z,98990.83
2019-03-13T00:29:55.126Z,98993.83
2019-03-13T00:30:57.715Z,98987.72
2019-03-13T00:31:59.929Z,98989.13
2019-03-13T00:33:02.152Z,98994.33
2019-03-13T00:34:04.380Z,98993.03
2019-03-13T00:35:06.590Z,98995.63
2019-03-13T00:36:08.796Z,98995.23
2019-03-13T00:37:11.010Z,99000.33
2019-03-13T00:38:14.549Z,98985.63
2019-03-13T00:39:16.755Z,98999.93
2019-03-13T00:40:18.952Z,99004.73
2019-03-13T00:41:21.160Z,98994.22
2019-03-13T00:42:23.355Z,99000.33
2019-03-13T00:43:25.573Z,98999.93
2019-03-13T00:44:27.932Z,99000.72
2019-03-13T00:45:30.104Z,99004.23
2019-03-13T00:46:32.316Z,99008.13
2019-03-13T00:47:34.646Z,98999.42
2019-03-13T00:48:36.856Z,99007.22
2019-03-13T00:49:39.089Z,99007.22
2019-03-13T00:50:41.415Z,99008.52
2019-03-13T00:51:43.647Z,99012.03
2019-03-13T00:52:45.850Z,99005.42
2019-03-13T00:53:48.040Z,99018.53
2019-03-13T00:54:50.275Z,99009.83
2019-03-13T00:55:52.478Z,99004.12
2019-03-13T00:56:54.683Z,99008.92
2019-03-13T00:57:56.892Z,99011.52
2019-03-13T00:58:59.089Z,99012.82
2019-03-13T01:00:01.333Z,99011.41
2019-03-13T01:01:37.848Z,99014.92
2019-03-13T01:02:43.461Z,99015.31
2019-03-13T01:03:49.737Z,99017.52
2019-03-13T01:05:05.943Z,99013.51
2019-03-13T01:06:11.570Z,99019.22
2019-03-13T01:07:13.771Z,99027.02
2019-03-13T01:08:15.983Z,99011.81
2019-03-13T01:09:18.267Z,99031.81
2019-03-13T01:10:20.442Z,99020.52
2019-03-13T01:11:22.640Z,99032.72
2019-03-13T01:12:24.843Z,99029.72
2019-03-13T01:13:27.024Z,99022.72
2019-03-13T01:14:29.215Z,99027.52
2019-03-13T01:15:31.639Z,99023.11
2019-03-13T01:16:33.849Z,99028.31
2019-03-13T01:17:38.803Z,99025.72
2019-03-13T01:18:39.905Z,99025.31
2019-03-13T01:19:42.146Z,99028.82
2019-03-13T01:20:44.342Z,99034.42
2019-03-13T01:21:46.556Z,99026.62
2019-03-13T01:22:48.776Z,99028.71
2019-03-13T01:23:50.990Z,99031.81
2019-03-13T01:24:53.200Z,99027.02
2019-03-13T01:25:58.211Z,99036.62
2019-03-13T01:27:00.417Z,99042.22
2019-03-13T01:28:02.637Z,99046.52
2019-03-13T01:29:04.857Z,99046.23
2019-03-13T01:30:07.396Z,99037.41
2019-03-13T01:31:34.653Z,99042.61
2019-03-13T01:32:49.419Z,99051.32
2019-03-13T01:33:51.637Z,99045.72
2019-03-13T01:35:00.056Z,99050.81
2019-03-13T01:36:03.781Z,99043.13
2019-03-13T01:37:05.996Z,99052.22
2019-03-13T01:38:08.227Z,99048.21
2019-03-13T01:39:10.523Z,99042.22
2019-03-13T01:40:15.229Z,99046.63
2019-03-13T01:41:17.463Z,99049.63
2019-03-13T01:42:19.717Z,99056.52
2019-03-13T01:43:22.996Z,99050.92
2019-03-13T01:44:25.202Z,99050.02
2019-03-13T01:45:27.400Z,99047.81
2019-03-13T01:46:29.637Z,99050.92
2019-03-13T01:47:31.829Z,99048.72
2019-03-13T01:48:34.037Z,99046.52
2019-03-13T01:49:36.323Z,99053.52
2019-03-13T01:50:38.525Z,99048.32
2019-03-13T01:51:40.745Z,99045.72
2019-03-13T01:52:42.951Z,99050.92
2019-03-13T01:53:45.161Z,99046.12
2019-03-13T01:54:47.361Z,99048.32
2019-03-13T01:55:49.560Z,99044.02
2019-03-13T01:56:51.883Z,99045.33
2019-03-13T01:57:54.089Z,99057.42
2019-03-13T01:58:56.290Z,99044.53
2019-03-13T01:59:58.481Z,99044.42
2019-03-13T02:01:00.697Z,99047.02
2019-03-13T02:02:02.912Z,99046.23
2019-03-13T02:03:05.104Z,99054.03
2019-03-13T02:04:09.635Z,99042.72
2019-03-13T02:05:11.843Z,99056.23
2019-03-13T02:06:14.045Z,99046.73
2019-03-13T02:07:16.333Z,99052.33
2019-03-13T02:08:18.533Z,99053.23
2019-03-13T02:09:20.746Z,99043.63
2019-03-13T02:10:23.062Z,99054.42
2019-03-13T02:11:25.257Z,99047.13
2019-03-13T02:12:27.508Z,99041.93
2019-03-13T02:13:29.744Z,99048.43
2019-03-13T02:14:31.948Z,99046.63
2019-03-13T02:15:34.145Z,99055.73
2019-03-13T02:16:36.362Z,99053.52
2019-03-13T02:17:38.588Z,99048.83
2019-03-13T02:18:40.790Z,99062.63
2019-03-13T02:19:42.998Z,99057.92
2019-03-13T02:20:45.201Z,99054.82
2019-03-13T02:21:47.401Z,99059.62
2019-03-13T02:22:49.639Z,99050.52
2019-03-13T02:23:51.855Z,99059.62
2019-03-13T02:24:54.374Z,99054.42
2019-03-13T02:25:56.685Z,99052.22
2019-03-13T02:26:58.938Z,99055.73
2019-03-13T02:28:01.150Z,99065.73
2019-03-13T02:29:03.353Z,99062.22
2019-03-13T02:30:05.570Z,99062.63
2019-03-13T02:31:07.770Z,99065.22
2019-03-13T02:32:09.976Z,99057.92
2019-03-13T02:33:12.556Z,99058.83
2019-03-13T02:34:14.802Z,99065.84
2019-03-13T02:35:16.964Z,99059.23
2019-03-13T02:36:19.165Z,99060.13
2019-03-13T02:37:21.469Z,99056.13
2019-03-13T02:38:23.704Z,99067.83
2019-03-13T02:39:25.887Z,99058.33
2019-03-13T02:40:30.286Z,99047.92
2019-03-13T02:41:32.471Z,99047.02
2019-03-13T02:42:34.675Z,99049.22
2019-03-13T02:43:36.914Z,99049.22
2019-03-13T02:44:39.135Z,99040.13
2019-03-13T02:45:41.351Z,99047.02
2019-03-13T02:46:43.584Z,99047.52
2019-03-13T02:47:45.768Z,99048.43
2019-03-13T02:48:48.003Z,99041.82
2019-03-13T02:49:50.210Z,99043.52
2019-03-13T02:50:52.481Z,99045.33
2019-03-13T02:51:54.631Z,99043.23
2019-03-13T02:52:56.836Z,99046.52
2019-03-13T02:53:59.068Z,99048.83
2019-03-13T02:55:01.321Z,99039.33
2019-03-13T02:56:03.525Z,99043.23
2019-03-13T02:57:05.728Z,99047.13
2019-03-13T02:58:07.938Z,99041.53
2019-03-13T02:59:10.144Z,99045.72
2019-03-13T03:00:13.249Z,99041.42
2019-03-13T03:01:23.829Z,99041.42
2019-03-13T03:02:30.126Z,99034.42
2019-03-13T03:03:38.160Z,99032.72
2019-03-13T03:04:40.404Z,99017.91
2019-03-13T03:05:42.601Z,99027.91
2019-03-13T03:06:44.814Z,99031.31
2019-03-13T03:07:47.024Z,99028.20
2019-03-13T03:08:49.221Z,99032.72
2019-03-13T03:09:51.456Z,99031.42
2019-03-13T03:10:55.218Z,99031.42
2019-03-13T03:11:57.422Z,99023.22
2019-03-13T03:12:59.618Z,99024.52
2019-03-13T03:14:01.804Z,99018.02
2019-03-13T03:15:04.014Z,99016.72
2019-03-13T03:16:06.211Z,99019.72
2019-03-13T03:17:08.930Z,99018.02
2019-03-13T03:18:11.197Z,99019.72
2019-03-13T03:19:13.399Z,99012.31
2019-03-13T03:20:15.632Z,99014.12
2019-03-13T03:21:17.922Z,99010.63
2019-03-13T03:22:20.113Z,99012.42
2019-03-13T03:23:22.326Z,99016.33
2019-03-13T03:24:24.516Z,99009.83
2019-03-13T03:25:26.776Z,98999.82
2019-03-13T03:26:28.988Z,99007.52
2019-03-13T03:27:31.168Z,99006.72
2019-03-13T03:28:33.364Z,99007.63
2019-03-13T03:29:38.637Z,99013.72
2019-03-13T03:30:39.432Z,99008.92
2019-03-13T03:31:41.636Z,99006.72
2019-03-13T03:32:43.851Z,99014.92
2019-03-13T03:33:46.036Z,99013.11
2019-03-13T03:34:48.238Z,99004.12
2019-03-13T03:35:50.466Z,99011.02
2019-03-13T03:36:52.672Z,99005.31
2019-03-13T03:37:54.879Z,99007.63
2019-03-13T03:38:57.269Z,99011.92
2019-03-13T03:39:59.453Z,99008.92
2019-03-13T03:41:01.683Z,99017.63
2019-03-13T03:42:03.852Z,99025.42
2019-03-13T03:43:06.047Z,99014.12
2019-03-13T03:44:08.243Z,99016.33
2019-03-13T03:45:10.444Z,99016.33
2019-03-13T03:46:12.848Z,99003.72
2019-03-13T03:47:15.081Z,99004.91
2019-03-13T03:48:17.298Z,99002.82
2019-03-13T03:49:19.474Z,99002.82
2019-03-13T03:50:21.931Z,99006.32
2019-03-13T03:51:24.188Z,99001.02
2019-03-13T03:52:26.409Z,99005.92
2019-03-13T03:53:28.609Z,98993.72
2019-03-13T03:54:30.816Z,99001.23
2019-03-13T03:55:33.030Z,99002.92
2019-03-13T03:56:35.285Z,98996.31
2019-03-13T03:57:37.490Z,99015.92
2019-03-13T03:58:39.684Z,98997.62
2019-03-13T03:59:41.881Z,98985.13
2019-03-13T04:00:44.181Z,98993.72
2019-03-13T04:01:46.461Z,98992.81
2019-03-13T04:02:49.881Z,98994.62
2019-03-13T04:03:52.097Z,98989.81
2019-03-13T04:04:54.291Z,98991.52
2019-03-13T04:05:56.501Z,98991.52
2019-03-13T04:06:58.724Z,98983.82
2019-03-13T04:08:00.931Z,98988.13
2019-03-13T04:09:03.451Z,98983.72
2019-03-13T04:10:05.653Z,98990.32
2019-03-13T04:11:07.852Z,98982.92
2019-03-13T04:12:10.285Z,98979.92
2019-03-13T04:13:12.483Z,98977.32
2019-03-13T04:14:14.675Z,98994.73
2019-03-13T04:15:16.882Z,98987.72
2019-03-13T04:16:19.225Z,98980.72
2019-03-13T04:17:21.567Z,98981.63
2019-03-13T04:18:23.817Z,98978.12
2019-03-13T04:19:26.013Z,98978.52
2019-03-13T04:20:29.480Z,98984.22
2019-03-13T04:21:31.616Z,98977.72
2019-03-13T04:22:33.848Z,98982.02
2019-03-13T04:23:36.037Z,98982.41
2019-03-13T04:24:38.248Z,98976.81
2019-03-13T04:25:40.450Z,98973.82
2019-03-13T04:26:45.807Z,98988.13
2019-03-13T04:27:48.043Z,98971.62
2019-03-13T04:28:50.296Z,98964.61
2019-03-13T04:29:52.487Z,98974.22
2019-03-13T04:30:54.696Z,98975.12
2019-03-13T04:31:56.892Z,98982.52
2019-03-13T04:32:59.115Z,98959.13
2019-03-13T04:34:01.354Z,98970.31
2019-03-13T04:35:03.566Z,98974.22
2019-03-13T04:36:05.764Z,98967.21
2019-03-13T04:37:07.965Z,98960.81
2019-03-13T04:38:10.184Z,98963.81
2019-03-13T04:39:12.669Z,98970.03
2019-03-13T04:40:14.849Z,98965.73
2019-03-13T04:41:17.062Z,98960.42
2019-03-13T04:42:19.259Z,98965.63
2019-03-13T04:43:21.497Z,98968.22
2019-03-13T04:44:23.691Z,98955.73
2019-03-13T04:45:25.896Z,98964.32
2019-03-13T04:46:28.095Z,98955.62
2019-03-13T04:47:30.283Z,98961.22
2019-03-13T04:48:32.493Z,98966.92
2019-03-13T04:49:34.727Z,98953.02
2019-03-13T04:50:36.926Z,98948.22
2019-03-13T04:51:39.116Z,98952.11
2019-03-13T04:52:41.306Z,98940.41
2019-03-13T04:53:43.512Z,98956.02
2019-03-13T04:54:45.716Z,98940.02
2019-03-13T04:55:47.906Z,98945.22
2019-03-13T04:56:50.121Z,98941.21
2019-03-13T04:57:52.314Z,98944.82
2019-03-13T04:58:54.552Z,98939.12
2019-03-13T04:59:56.766Z,98933.02
2019-03-13T05:00:59.022Z,98944.82
2019-03-13T05:02:01.216Z,98941.31
2019-03-13T05:03:03.438Z,98936.52
2019-03-13T05:04:05.654Z,98935.72
2019-03-13T05:05:07.842Z,98932.22
2019-03-13T05:06:10.062Z,98936.52
2019-03-13T05:07:12.262Z,98933.91
2019-03-13T05:08:14.587Z,98936.12
2019-03-13T05:09:16.792Z,98935.32
2019-03-13T05:10:19.236Z,98942.22
2019-03-13T05:11:21.426Z,98937.42
2019-03-13T05:12:23.720Z,98941.82
2019-03-13T05:13:25.922Z,98934.42
2019-03-13T05:14:28.131Z,98936.12
2019-03-13T05:15:30.361Z,98923.91
2019-03-13T05:16:32.561Z,98928.72
2019-03-13T05:17:34.750Z,98936.12
2019-03-13T05:18:36.964Z,98940.92
2019-03-13T05:19:39.193Z,98934.42
2019-03-13T05:20:41.412Z,98942.62
2019-03-13T05:21:43.593Z,98934.71
2019-03-13T05:22:45.789Z,98933.12
2019-03-13T05:23:50.126Z,98921.42
2019-03-13T05:24:52.598Z,98932.22
2019-03-13T05:25:54.803Z,98933.12
2019-03-13T05:26:56.992Z,98930.52
2019-03-13T05:27:59.200Z,98936.12
2019-03-13T05:29:01.412Z,98933.52
2019-03-13T05:30:03.644Z,98926.11
2019-03-13T05:31:05.852Z,98934.31
2019-03-13T05:32:08.038Z,98931.31
2019-03-13T05:33:10.278Z,98931.31
2019-03-13T05:34:12.468Z,98940.52
2019-03-13T05:35:14.699Z,98949.12
2019-03-13T05:36:17.270Z,98929.62
2019-03-13T05:37:19.523Z,98939.22
2019-03-13T05:38:21.732Z,98929.22
2019-03-13T05:39:23.936Z,98939.12
2019-03-13T05:40:26.159Z,98934.02
2019-03-13T05:41:28.376Z,98930.02
2019-03-13T05:42:30.601Z,98937.42
2019-03-13T05:43:32.782Z,98941.42
2019-03-13T05:44:35.002Z,98937.42
2019-03-13T05:45:37.232Z,98936.63
2019-03-13T05:46:39.442Z,98934.81
2019-03-13T05:47:41.636Z,98936.63
2019-03-13T05:48:43.826Z,98937.92
2019-03-13T05:49:46.016Z,98941.72
2019-03-13T05:50:48.253Z,98937.92
2019-03-13T05:51:50.472Z,98942.62
2019-03-13T05:52:52.670Z,98940.92
2019-03-13T05:53:54.959Z,98931.82
2019-03-13T05:54:57.073Z,98929.72
2019-03-13T05:55:59.310Z,98934.42
2019-03-13T05:57:01.502Z,98935.32
2019-03-13T05:58:03.728Z,98932.33
2019-03-13T05:59:05.946Z,98936.73
2019-03-13T06:00:08.182Z,98937.23
2019-03-13T06:01:10.464Z,98933.87
2019-03-13T06:02:12.685Z,98928.53
2019-03-13T06:03:14.886Z,98922.03
2019-03-13T06:04:17.084Z,98929.83
2019-03-13T06:05:19.285Z,98926.97
2019-03-13T06:06:21.522Z,98915.77
2019-03-13T06:07:23.753Z,98921.77
2019-03-13T06:08:25.941Z,98920.97
2019-03-13T06:09:28.149Z,98920.97
2019-03-13T06:10:30.344Z,98925.38
2019-03-13T06:11:32.587Z,98917.68
2019-03-13T06:12:34.791Z,98932.78
2019-03-13T06:13:36.994Z,98924.58
2019-03-13T06:14:39.192Z,98931.98
2019-03-13T06:15:41.413Z,98925.59
2019-03-13T06:16:43.650Z,98928.19
2019-03-13T06:17:45.869Z,98937.29
2019-03-13T06:18:48.062Z,98933.89
2019-03-13T06:19:50.330Z,98921.58
2019-03-13T06:20:52.521Z,98925.08
2019-03-13T06:21:54.756Z,98924.19
2019-03-13T06:22:56.935Z,98926.38
2019-03-13T06:23:59.141Z,98924.58
2019-03-13T06:25:01.359Z,98927.18
2019-03-13T06:26:03.585Z,98925.87
2019-03-13T06:27:05.805Z,98923.68
2019-03-13T06:28:08.085Z,98915.27
2019-03-13T06:29:10.294Z,98938.27
2019-03-13T06:30:12.646Z,98928.53
2019-03-13T06:31:14.839Z,98928.53
2019-03-13T06:32:17.065Z,98923.73
2019-03-13T06:33:22.069Z,98918.42
2019-03-13T06:34:24.283Z,98933.63
2019-03-13T06:35:26.491Z,98923.62
2019-03-13T06:36:28.690Z,98925.61
2019-03-13T06:37:30.937Z,98923.91
2019-03-13T06:38:33.143Z,98921.20
2019-03-13T06:39:35.366Z,98921.61
2019-03-13T06:40:37.559Z,98920.70
2019-03-13T06:41:39.761Z,98904.49
2019-03-13T06:42:41.995Z,98904.59
2019-03-13T06:43:44.200Z,98902.00
2019-03-13T06:44:46.407Z,98910.20
2019-03-13T06:45:48.621Z,98915.00
2019-03-13T06:46:51.095Z,98902.80
2019-03-13T06:47:53.297Z,98906.70
2019-03-13T06:48:55.507Z,98912.30
2019-03-13T06:49:57.719Z,98906.19
2019-03-13T06:50:59.974Z,98901.28
2019-03-13T06:52:02.205Z,98906.09
2019-03-13T06:53:04.639Z,98898.29
2019-03-13T06:54:06.846Z,98901.28
2019-03-13T06:55:09.047Z,98894.78
2019-03-13T06:56:11.259Z,98906.34
2019-03-13T06:57:13.462Z,98901.55
2019-03-13T06:58:16.903Z,98893.34
2019-03-13T06:59:23.884Z,98901.94
2019-03-13T07:00:50.411Z,98892.05
2019-03-13T07:02:17.067Z,98895.44
2019-03-13T07:03:24.551Z,98885.05
2019-03-13T07:04:33.950Z,98885.05
2019-03-13T07:05:53.879Z,98901.04
2019-03-13T07:07:11.137Z,98884.14
2019-03-13T07:08:32.345Z,98874.54
2019-03-13T07:09:59.008Z,98884.03
2019-03-13T07:11:23.198Z,98881.33
2019-03-13T07:12:39.643Z,98875.63
2019-03-13T07:13:51.013Z,98890.43
2019-03-13T07:15:12.164Z,98876.12
2019-03-13T07:16:45.595Z,98879.13
2019-03-13T07:18:05.528Z,98877.94
2019-03-13T07:19:19.330Z,98870.34
2019-03-13T07:20:45.653Z,98866.05
2019-03-13T07:22:01.326Z,98867.59
2019-03-13T07:23:20.158Z,98858.20
2019-03-13T07:24:39.915Z,98862.20
2019-03-13T07:25:54.166Z,98863.11
2019-03-13T07:27:12.435Z,98857.21
2019-03-13T07:28:32.131Z,98869.52
2019-03-13T07:29:48.996Z,98860.66
2019-03-13T07:30:59.323Z,98857.66
2019-03-13T07:32:19.189Z,98870.37
2019-03-13T07:33:39.038Z,98873.37
2019-03-13T07:35:18.602Z,98869.57
2019-03-13T07:36:48.710Z,98861.48
2019-03-13T07:38:09.899Z,98863.57
2019-03-13T07:39:24.817Z,98860.17
2019-03-13T07:40:52.043Z,98865.37
2019-03-13T07:42:19.261Z,98855.88
2019-03-13T07:43:43.264Z,98851.47
2019-03-13T07:45:03.293Z,98844.07
2019-03-13T07:46:21.020Z,98847.57
2019-03-13T07:47:57.612Z,98856.17
2019-03-13T07:49:31.154Z,98837.47
2019-03-13T07:50:55.700Z,98843.06
2019-03-13T07:52:16.850Z,98843.36
2019-03-13T07:53:44.011Z,98841.95
2019-03-13T07:55:14.214Z,98843.02
2019-03-13T07:56:38.166Z,98836.91
2019-03-13T07:57:50.803Z,98842.91
2019-03-13T07:59:14.776Z,98844.61
2019-03-13T08:00:28.017Z,98849.41
2019-03-13T08:01:58.300Z,98834.61
2019-03-13T08:03:07.015Z,98832.01
2019-03-13T08:04:28.148Z,98841.01
2019-03-13T08:05:37.075Z,98837.50
2019-03-13T08:06:47.690Z,98824.41
2019-03-13T08:08:07.860Z,98830.90
2019-03-13T08:09:28.033Z,98818.70
2019-03-13T08:10:49.208Z,98814.80
2019-03-13T08:12:28.988Z,98839.50
2019-03-13T08:13:48.554Z,98826.00
2019-03-13T08:15:09.047Z,98828.49
2019-03-13T08:16:33.241Z,98831.99
2019-03-13T08:17:57.231Z,98838.49
2019-03-13T08:19:18.387Z,98813.26
2019-03-13T08:20:54.891Z,98821.85
2019-03-13T08:22:16.268Z,98832.15
2019-03-13T08:23:36.922Z,98832.15
2019-03-13T08:24:50.507Z,98828.65
2019-03-13T08:26:03.370Z,98832.95
2019-03-13T08:27:24.547Z,98823.84
2019-03-13T08:28:41.894Z,98821.25
2019-03-13T08:30:01.811Z,98813.05
2019-03-13T08:31:12.319Z,98818.75
2019-03-13T08:32:32.033Z,98824.85
2019-03-13T08:33:53.173Z,98817.55
2019-03-13T08:35:17.395Z,98820.00
2019-03-13T08:36:29.752Z,98824.50
2019-03-13T08:37:50.951Z,98826.81
2019-03-13T08:39:09.091Z,98829.01
2019-03-13T08:40:19.962Z,98829.11
2019-03-13T08:41:36.532Z,98824.92
2019-03-13T08:43:12.882Z,98821.52
2019-03-13T08:44:46.634Z,98827.76
2019-03-13T08:46:07.771Z,98814.36
2019-03-13T08:47:27.599Z,98809.26
2019-03-13T08:48:47.451Z,98817.66
2019-03-13T08:50:02.299Z,98811.27
2019-03-13T08:51:21.753Z,98816.57
2019-03-13T08:52:54.847Z,98800.06
2019-03-13T08:54:13.214Z,98817.88
2019-03-13T08:55:34.848Z,98807.07
2019-03-13T08:57:02.067Z,98811.27
2019-03-13T08:58:17.833Z,98806.97
2019-03-13T08:59:35.458Z,98805.17
2019-03-13T09:00:56.628Z,98815.06
2019-03-13T09:02:21.005Z,98809.86
2019-03-13T09:03:27.652Z,98799.36
2019-03-13T09:04:57.843Z,98793.77
2019-03-13T09:06:25.772Z,98803.26
2019-03-13T09:07:47.022Z,98805.36
2019-03-13T09:09:06.859Z,98801.96
2019-03-13T09:10:37.205Z,98791.95
2019-03-13T09:12:10.504Z,98794.06
2019-03-13T09:13:46.757Z,98794.06
2019-03-13T09:15:00.380Z,98785.75
2019-03-13T09:16:11.115Z,98792.55
2019-03-13T09:17:41.289Z,98788.12
2019-03-13T09:19:01.284Z,98788.52
2019-03-13T09:20:28.498Z,98788.52
2019-03-13T09:21:49.658Z,98785.81
2019-03-13T09:23:08.668Z,98796.61
2019-03-13T09:24:16.157Z,98787.52
2019-03-13T09:25:43.289Z,98782.71
2019-03-13T09:27:10.294Z,98777.01
2019-03-13T09:28:40.683Z,98777.01
2019-03-13T09:30:01.854Z,98780.41
2019-03-13T09:31:32.531Z,98765.61
2019-03-13T09:32:54.405Z,98776.41
2019-03-13T09:34:16.060Z,98777.20
2019-03-13T09:35:47.596Z,98777.61
2019-03-13T09:37:09.208Z,98772.41
2019-03-13T09:38:31.544Z,98766.80
2019-03-13T09:39:52.682Z,98772.41
2019-03-13T09:41:26.300Z,98768.00
2019-03-13T09:43:00.853Z,98772.30
2019-03-13T09:44:23.079Z,98756.20
2019-03-13T09:45:54.366Z,98755.80
2019-03-13T09:47:22.109Z,98764.00
2019-03-13T09:48:53.218Z,98762.80
2019-03-13T09:50:11.702Z,98754.91
2019-03-13T09:51:19.886Z,98768.80
2019-03-13T09:52:40.021Z,98749.80
2019-03-13T09:54:07.322Z,98745.91
2019-03-13T09:55:19.367Z,98756.30
2019-03-13T09:56:35.758Z,98746.80
2019-03-13T09:57:57.536Z,98745.11
2019-03-13T09:59:13.579Z,98736.80
2019-03-13T10:00:44.363Z,98747.60
2019-03-13T10:02:10.983Z,98751.41
2019-03-13T10:03:30.684Z,98740.47
2019-03-13T10:05:07.352Z,98722.67
2019-03-13T10:06:29.780Z,98732.97
2019-03-13T10:07:41.938Z,98734.56
2019-03-13T10:09:04.823Z,98733.37
2019-03-13T10:10:29.752Z,98742.47
2019-03-13T10:11:52.034Z,98741.56
2019-03-13T10:13:15.900Z,98740.27
2019-03-13T10:14:29.404Z,98731.56
2019-03-13T10:15:57.390Z,98749.77
2019-03-13T10:17:25.757Z,98735.47
2019-03-13T10:18:47.986Z,98744.27
2019-03-13T10:20:09.371Z,98743.20
2019-03-13T10:21:42.850Z,98736.51
2019-03-13T10:23:02.204Z,98739.81
2019-03-13T10:24:26.324Z,98748.16
2019-03-13T10:25:53.348Z,98734.05
2019-03-13T10:27:13.444Z,98739.95
2019-03-13T10:28:47.190Z,98736.39
2019-03-13T10:30:11.626Z,98724.98
2019-03-13T10:31:26.152Z,98724.28
2019-03-13T10:32:39.082Z,98725.18
2019-03-13T10:34:16.118Z,98739.98
2019-03-13T10:35:55.789Z,98733.98
2019-03-13T10:37:13.229Z,98731.92
2019-03-13T10:38:38.098Z,98736.32
2019-03-13T10:40:00.451Z,98729.31
2019-03-13T10:41:12.768Z,98724.11
2019-03-13T10:42:35.015Z,98730.08
2019-03-13T10:43:50.918Z,98746.89
2019-03-13T10:45:11.723Z,98726.69
2019-03-13T10:46:21.446Z,98722.69
2019-03-13T10:47:49.513Z,98722.98
2019-03-13T10:49:14.486Z,98707.68
2019-03-13T10:50:52.416Z,98709.25
2019-03-13T10:52:05.628Z,98713.05
2019-03-13T10:53:33.686Z,98714.65
2019-03-13T10:54:47.538Z,98704.55
2019-03-13T10:56:11.775Z,98709.34
2019-03-13T10:57:42.038Z,98703.65
2019-03-13T10:59:03.200Z,98721.05
2019-03-13T11:00:23.044Z,98707.14
2019-03-13T11:01:41.109Z,98704.84
2019-03-13T11:03:02.270Z,98715.65
2019-03-13T11:04:23.602Z,98716.84
2019-03-13T11:05:40.158Z,98717.65
2019-03-13T11:06:55.402Z,98710.25
2019-03-13T11:08:04.432Z,98718.31
2019-03-13T11:09:18.190Z,98720.41
2019-03-13T11:10:42.432Z,98715.11
2019-03-13T11:11:58.569Z,98717.21
2019-03-13T11:13:18.427Z,98704.11
2019-03-13T11:14:48.809Z,98720.11
2019-03-13T11:16:08.710Z,98716.61
2019-03-13T11:17:32.630Z,98710.01
2019-03-13T11:18:44.191Z,98707.81
2019-03-13T11:20:02.343Z,98713.91
2019-03-13T11:21:12.334Z,98711.61
2019-03-13T11:22:29.136Z,98717.70
2019-03-13T11:23:48.926Z,98706.41
2019-03-13T11:24:58.023Z,98715.51
2019-03-13T11:26:31.850Z,98697.31
2019-03-13T11:27:50.485Z,98712.01
2019-03-13T11:29:14.754Z,98714.11
2019-03-13T11:30:34.711Z,98710.08
2019-03-13T11:31:47.641Z,98697.77
2019-03-13T11:33:07.946Z,98700.38
2019-03-13T11:34:47.448Z,98713.77
2019-03-13T11:36:06.843Z,98701.97
2019-03-13T11:37:30.886Z,98696.27
2019-03-13T11:38:52.065Z,98712.27
2019-03-13T11:40:13.298Z,98708.37
2019-03-13T11:41:43.531Z,98692.27
2019-03-13T11:43:10.804Z,98696.57
2019-03-13T11:44:30.855Z,98698.77
2019-03-13T11:45:51.972Z,98691.88
2019-03-13T11:47:05.451Z,98691.97
2019-03-13T11:48:25.667Z,98689.67
2019-03-13T11:49:48.838Z,98700.41
2019-03-13T11:51:08.247Z,98678.21
2019-03-13T11:52:28.289Z,98692.95
2019-03-13T11:54:04.973Z,98700.65
2019-03-13T11:55:40.143Z,98703.95
2019-03-13T11:57:04.587Z,98713.87
2019-03-13T11:58:26.756Z,98702.88
2019-03-13T11:59:49.610Z,98702.27
2019-03-13T12:01:20.037Z,98706.91
2019-03-13T12:02:53.408Z,98681.89
2019-03-13T12:04:07.526Z,98691.89
2019-03-13T12:05:34.439Z,98702.89
2019-03-13T12:07:01.602Z,98701.59
2019-03-13T12:08:33.492Z,98701.19
2019-03-13T12:09:45.545Z,98695.99
2019-03-13T12:11:09.791Z,98700.30
2019-03-13T12:12:35.147Z,98694.09
2019-03-13T12:14:02.357Z,98692.09
2019-03-13T12:15:23.182Z,98693.66
2019-03-13T12:16:43.175Z,98686.66
2019-03-13T12:18:03.475Z,98683.06
2019-03-13T12:19:16.249Z,98686.77
2019-03-13T12:20:34.773Z,98667.06
2019-03-13T12:21:52.885Z,98677.47
2019-03-13T12:23:13.094Z,98679.17
2019-03-13T12:24:37.104Z,98672.97
2019-03-13T12:25:57.179Z,98666.34
2019-03-13T12:27:17.252Z,98671.84
2019-03-13T12:28:53.785Z,98671.74
2019-03-13T12:30:19.595Z,98671.64
2019-03-13T12:31:40.701Z,98668.84
2019-03-13T12:33:14.065Z,98668.34
2019-03-13T12:34:35.238Z,98664.05
2019-03-13T12:35:55.132Z,98663.55
2019-03-13T12:37:25.591Z,98670.14
2019-03-13T12:38:35.191Z,98661.84
2019-03-13T12:39:52.422Z,98666.81
2019-03-13T12:41:12.158Z,98660.61
2019-03-13T12:42:45.557Z,98666.11
2019-03-13T12:44:04.995Z,98657.72
2019-03-13T12:45:35.288Z,98658.11
2019-03-13T12:47:02.699Z,98652.81
2019-03-13T12:48:39.375Z,98658.41
2019-03-13T12:50:03.528Z,98654.52
2019-03-13T12:51:33.668Z,98659.11
2019-03-13T12:52:53.846Z,98661.98
2019-03-13T12:54:15.052Z,98654.08
2019-03-13T12:55:39.480Z,98648.38
2019-03-13T12:56:52.748Z,98654.88
2019-03-13T12:58:10.495Z,98655.78
2019-03-13T12:59:31.659Z,98663.58
2019-03-13T13:01:01.887Z,98667.98
2019-03-13T13:02:23.040Z,98670.28
2019-03-13T13:03:53.391Z,98660.02
2019-03-13T13:05:14.551Z,98667.61
2019-03-13T13:06:31.623Z,98666.52
2019-03-13T13:07:48.895Z,98670.61
2019-03-13T13:09:10.200Z,98670.55
2019-03-13T13:10:32.048Z,98672.44
2019-03-13T13:12:06.219Z,98667.74
2019-03-13T13:13:40.568Z,98674.14
2019-03-13T13:14:54.738Z,98665.67
2019-03-13T13:16:25.422Z,98664.87
2019-03-13T13:17:38.909Z,98654.56
2019-03-13T13:18:58.316Z,98662.06
2019-03-13T13:20:01.871Z,98659.86
2019-03-13T13:21:05.598Z,98660.27
2019-03-13T13:22:08.680Z,98654.56
2019-03-13T13:23:12.400Z,98658.96
2019-03-13T13:24:15.959Z,98672.06
2019-03-13T13:25:19.259Z,98657.26
2019-03-13T13:26:22.538Z,98661.06
2019-03-13T13:27:26.022Z,98652.45
2019-03-13T13:28:32.303Z,98654.46
2019-03-13T13:29:39.851Z,98660.06
2019-03-13T13:30:48.900Z,98662.66
2019-03-13T13:31:55.165Z,98665.94
2019-03-13T13:32:56.601Z,98662.44
2019-03-13T13:33:58.899Z,98669.73
2019-03-13T13:35:01.067Z,98661.84
2019-03-13T13:36:03.333Z,98673.54
2019-03-13T13:37:05.723Z,98665.14
2019-03-13T13:38:10.230Z,98662.94
2019-03-13T13:39:13.507Z,98666.74
2019-03-13T13:40:15.798Z,98661.54
2019-03-13T13:41:17.915Z,98657.64
2019-03-13T13:42:20.115Z,98663.64
2019-03-13T13:43:22.318Z,98654.55
2019-03-13T13:44:24.941Z,98658.84
2019-03-13T13:45:32.811Z,98665.34
2019-03-13T13:46:35.021Z,98664.44
2019-03-13T13:47:37.317Z,98662.55